Terminal Aerodrome Forecast
Issued by NWS

Home | Current Version | Previous Version | Text Only | Print | Product List | Glossary On
Versions: 1 2 3 4 5 6 7 8 9 10 11 12 13 14 15 16 17 18 19 20 21 22 23 24 25 26 27
000
FTUS43 KDMX 230151 AAC
TAFOTM
TAF AMD
KOTM 230151Z 2302/2324 10008KT 1/2SM -DZ FG VV002
     FM230600 16005KT 1/2SM -DZ FG OVC003
     FM230900 23006KT 1SM BR OVC004
     FM231300 28008KT 2SM BR BKN006
     FM231700 30009KT P6SM BKN040 BKN130
     FM232200 31007KT P6SM SCT150=

USA.gov is the U.S. government's official web portal to all federal, state and local government web resources and services.